Time;durP1;ratioP1;P1;durP2;ratioP2;P2;SDS_P1;SDS_P2;PMS_P1;PMS_P2;Temp;Humidity;BMP_temperature;BMP_pressure;BME280_temperature;BME280_humidity;BME280_pressure;Samples;Min_cycle;Max_cycle;Signal;HPM_P1;HPM_P2
2021/04/24 00:01:30;;;;;;;14.47;7.47;;;;;6.90;102249.00;;;;10558957;28;20702;-72
2021/04/24 00:06:32;;;;;;;14.27;7.57;;;;;6.80;102257.00;;;;10508118;28;20209;-72
2021/04/24 00:11:34;;;;;;;20.33;8.17;;;;;6.70;102255.00;;;;10507909;28;20602;-72
2021/04/24 00:16:35;;;;;;;14.23;7.70;;;;;6.70;102254.00;;;;10524608;28;20927;-72
2021/04/24 00:21:37;;;;;;;17.20;7.93;;;;;6.60;102244.00;;;;10507801;28;20197;-72
2021/04/24 00:26:38;;;;;;;15.63;8.30;;;;;6.50;102244.00;;;;10523898;28;20253;-73
2021/04/24 00:31:39;;;;;;;15.67;8.07;;;;;6.40;102252.00;;;;10542909;28;20180;-72
2021/04/24 00:36:41;;;;;;;14.90;8.40;;;;;6.30;102252.00;;;;10524289;28;20205;-72
2021/04/24 00:41:42;;;;;;;15.53;8.47;;;;;6.20;102247.00;;;;10507074;28;20276;-72
2021/04/24 00:46:44;;;;;;;13.27;8.07;;;;;6.10;102239.00;;;;10489846;28;20208;-72
2021/04/24 00:51:45;;;;;;;14.43;8.10;;;;;6.00;102245.00;;;;10489824;28;20188;-72
2021/04/24 00:56:47;;;;;;;16.03;8.03;;;;;6.00;102246.00;;;;10506154;28;20227;-72
2021/04/24 01:01:48;;;;;;;16.33;8.30;;;;;6.00;102248.00;;;;10523701;28;20212;-72
2021/04/24 01:06:49;;;;;;;13.57;8.13;;;;;6.00;102246.00;;;;10501890;28;20684;-72
2021/04/24 01:11:51;;;;;;;16.57;9.07;;;;;6.00;102243.00;;;;10463977;28;20201;-72
2021/04/24 01:16:53;;;;;;;15.57;8.63;;;;;5.90;102240.00;;;;10501137;28;20612;-71
2021/04/24 01:22:06;;;;;;;19.37;10.03;;;;;5.80;102237.00;;;;10522684;28;20235;-71
2021/04/24 01:27:07;;;;;;;19.90;8.50;;;;;5.70;102238.00;;;;10495965;28;20189;-71
2021/04/24 01:32:09;;;;;;;16.77;8.57;;;;;5.50;102231.00;;;;10514237;28;20249;-71
2021/04/24 01:37:11;;;;;;;20.20;9.77;;;;;5.50;102234.00;;;;10540062;28;20201;-71
2021/04/24 01:42:12;;;;;;;17.67;9.77;;;;;5.40;102219.00;;;;10504694;28;20670;-71
2021/04/24 01:47:14;;;;;;;18.27;9.23;;;;;5.30;102220.00;;;;10538083;28;20208;-71
2021/04/24 01:52:15;;;;;;;18.13;9.37;;;;;5.30;102213.00;;;;10522055;28;20189;-71
2021/04/24 01:57:16;;;;;;;18.23;9.17;;;;;5.30;102206.00;;;;10554200;28;20239;-71
2021/04/24 02:02:18;;;;;;;17.17;8.87;;;;;5.30;102207.00;;;;10546166;28;20196;-71
2021/04/24 02:07:19;;;;;;;16.80;9.57;;;;;5.20;102208.00;;;;10527518;28;20274;-71
2021/04/24 02:12:22;;;;;;;21.90;9.27;;;;;5.10;102217.00;;;;10471518;28;20189;-71
2021/04/24 02:17:25;;;;;;;17.37;9.13;;;;;5.00;102214.00;;;;10504714;28;20293;-72
2021/04/24 02:22:27;;;;;;;18.73;9.97;;;;;4.90;102213.00;;;;10504535;28;20521;-72
2021/04/24 02:27:29;;;;;;;20.90;8.87;;;;;4.90;102204.00;;;;10503588;28;20204;-71
2021/04/24 02:32:31;;;;;;;17.67;9.77;;;;;4.80;102213.00;;;;10539097;28;20188;-71
2021/04/24 02:37:34;;;;;;;18.07;9.80;;;;;4.70;102220.00;;;;10520425;28;20591;-71
2021/04/24 02:42:35;;;;;;;16.23;9.20;;;;;4.70;102217.00;;;;10487582;28;20207;-71
2021/04/24 02:47:37;;;;;;;19.43;9.10;;;;;4.60;102213.00;;;;10520039;28;20284;-72
2021/04/24 02:52:39;;;;;;;21.27;10.03;;;;;4.60;102208.00;;;;10504142;28;20185;-71
2021/04/24 02:57:41;;;;;;;20.10;10.53;;;;;4.50;102220.00;;;;10470393;28;20213;-71
2021/04/24 03:02:43;;;;;;;16.30;9.50;;;;;4.60;102227.00;;;;10520481;28;20238;-71
2021/04/24 03:07:44;;;;;;;20.30;10.53;;;;;4.50;102227.00;;;;10519679;28;20687;-71
2021/04/24 03:12:46;;;;;;;17.63;9.70;;;;;4.50;102225.00;;;;10520344;28;20213;-71
2021/04/24 03:17:48;;;;;;;17.73;10.60;;;;;4.50;102227.00;;;;10526074;28;20254;-71
2021/04/24 03:22:50;;;;;;;20.03;9.33;;;;;4.40;102223.00;;;;10527594;28;20227;-72
2021/04/24 03:27:52;;;;;;;22.13;10.20;;;;;4.40;102226.00;;;;10485090;28;20201;-71
2021/04/24 03:32:53;;;;;;;17.20;10.03;;;;;4.40;102225.00;;;;10468049;28;20221;-71
2021/04/24 03:37:54;;;;;;;20.73;9.37;;;;;4.40;102219.00;;;;10490000;28;20725;-71
2021/04/24 03:42:56;;;;;;;20.80;9.10;;;;;4.40;102218.00;;;;10510214;28;20192;-71
2021/04/24 03:47:57;;;;;;;17.43;9.37;;;;;4.30;102218.00;;;;10492234;28;20525;-71
2021/04/24 03:52:58;;;;;;;17.07;8.93;;;;;4.30;102225.00;;;;10510015;28;20559;-73
2021/04/24 03:58:00;;;;;;;18.80;8.43;;;;;4.20;102226.00;;;;10508824;28;20221;-72
2021/04/24 04:03:04;;;;;;;19.23;9.30;;;;;4.10;102217.00;;;;10542700;28;20251;-72
2021/04/24 04:08:07;;;;;;;15.00;8.77;;;;;4.10;102218.00;;;;10525661;28;20209;-72
2021/04/24 04:13:10;;;;;;;20.90;9.20;;;;;4.00;102210.00;;;;10507905;28;20192;-72
2021/04/24 04:18:14;;;;;;;19.23;9.33;;;;;3.90;102221.00;;;;10507623;28;20299;-72
2021/04/24 04:23:15;;;;;;;15.10;8.60;;;;;3.90;102224.00;;;;10525238;28;20242;-72
2021/04/24 04:28:17;;;;;;;21.13;10.00;;;;;3.90;102224.00;;;;10513791;28;20518;-72
2021/04/24 04:33:19;;;;;;;17.20;9.40;;;;;3.80;102235.00;;;;10516444;28;20273;-72
2021/04/24 04:38:21;;;;;;;15.70;9.43;;;;;3.80;102234.00;;;;10482231;28;20623;-72
2021/04/24 04:43:23;;;;;;;19.13;9.23;;;;;3.80;102238.00;;;;10511935;28;20205;-72
2021/04/24 04:48:24;;;;;;;15.67;9.47;;;;;3.90;102239.00;;;;10489874;28;20189;-72
2021/04/24 04:53:26;;;;;;;14.40;8.20;;;;;3.90;102238.00;;;;10506631;28;20201;-72
2021/04/24 04:58:46;;;;;;;17.43;9.03;;;;;4.00;102248.00;;;;10525877;28;20204;-72
2021/04/24 05:03:47;;;;;;;14.90;8.00;;;;;4.00;102241.00;;;;10523104;28;20607;-72
2021/04/24 05:08:50;;;;;;;17.60;9.00;;;;;4.10;102244.00;;;;10541139;28;20496;-72
2021/04/24 05:13:52;;;;;;;16.00;8.13;;;;;4.20;102250.00;;;;10522498;28;20314;-72
2021/04/24 05:18:53;;;;;;;14.13;8.77;;;;;4.40;102257.00;;;;10506255;28;20564;-72
2021/04/24 05:23:54;;;;;;;15.10;7.73;;;;;4.80;102247.00;;;;10505980;28;20250;-73
2021/04/24 05:28:56;;;;;;;14.90;8.53;;;;;5.00;102253.00;;;;10522552;28;20250;-72
2021/04/24 05:33:57;;;;;;;13.57;7.67;;;;;5.30;102255.00;;;;10539018;28;20197;-72
2021/04/24 05:38:59;;;;;;;17.33;8.47;;;;;5.60;102256.00;;;;10520921;28;20212;-72
2021/04/24 05:44:00;;;;;;;16.73;7.87;;;;;5.70;102254.00;;;;10489490;28;20219;-72
2021/04/24 05:49:02;;;;;;;21.00;7.90;;;;;5.80;102265.00;;;;10463175;28;20678;-72
2021/04/24 05:54:04;;;;;;;18.33;7.67;;;;;5.90;102273.00;;;;10520125;28;20203;-72
2021/04/24 05:59:05;;;;;;;15.27;8.43;;;;;6.00;102277.00;;;;10512094;28;20254;-72
2021/04/24 06:04:06;;;;;;;16.67;8.20;;;;;6.30;102276.00;;;;10462866;28;20219;-72
2021/04/24 06:09:09;;;;;;;15.20;7.63;;;;;6.60;102284.00;;;;10496201;28;20205;-72
2021/04/24 06:14:10;;;;;;;12.60;7.70;;;;;7.00;102276.00;;;;10498911;28;20300;-73
2021/04/24 06:19:12;;;;;;;13.83;7.53;;;;;7.40;102282.00;;;;10478399;28;20213;-72
2021/04/24 06:24:13;;;;;;;18.03;8.07;;;;;7.60;102284.00;;;;10518881;28;20632;-72
2021/04/24 06:29:15;;;;;;;15.53;8.03;;;;;7.70;102286.00;;;;10554045;28;20227;-72
2021/04/24 06:34:16;;;;;;;15.53;8.03;;;;;7.90;102285.00;;;;10496019;28;20205;-73
2021/04/24 06:39:17;;;;;;;14.93;8.13;;;;;8.20;102281.00;;;;10514491;28;20217;-72
2021/04/24 06:44:19;;;;;;;15.80;7.90;;;;;8.30;102283.00;;;;10495232;28;20212;-72
2021/04/24 06:49:20;;;;;;;16.13;8.80;;;;;8.30;102280.00;;;;10499073;28;20199;-72
2021/04/24 06:54:21;;;;;;;14.73;8.97;;;;;8.50;102276.00;;;;10536493;28;20274;-72
2021/04/24 06:59:23;;;;;;;17.27;8.03;;;;;9.30;102281.00;;;;10530670;28;20277;-72
2021/04/24 07:04:25;;;;;;;14.13;8.10;;;;;10.00;102278.00;;;;10510295;28;20196;-72
2021/04/24 07:09:27;;;;;;;14.03;8.50;;;;;10.70;102276.00;;;;10492875;28;20185;-73
2021/04/24 07:14:29;;;;;;;14.53;8.63;;;;;11.30;102276.00;;;;10527467;28;20197;-73
2021/04/24 07:19:30;;;;;;;11.80;7.57;;;;;11.60;102277.00;;;;10527392;28;20195;-70
2021/04/24 07:24:32;;;;;;;14.40;7.53;;;;;11.80;102277.00;;;;10530686;28;20258;-73
2021/04/24 07:29:33;;;;;;;13.67;7.30;;;;;12.30;102267.00;;;;10525095;28;20194;-71
2021/04/24 07:34:34;;;;;;;13.47;8.00;;;;;12.90;102270.00;;;;10535475;28;20201;-71
2021/04/24 07:39:36;;;;;;;11.53;6.07;;;;;13.00;102276.00;;;;10535614;28;20192;-71
2021/04/24 07:44:38;;;;;;;12.77;6.77;;;;;13.20;102273.00;;;;10484507;28;20664;-71
2021/04/24 07:49:39;;;;;;;12.10;6.83;;;;;13.30;102275.00;;;;10500218;28;20197;-71
2021/04/24 07:54:44;;;;;;;16.60;6.43;;;;;14.00;102273.00;;;;10530900;28;20192;-71
2021/04/24 07:59:45;;;;;;;10.90;6.07;;;;;14.70;102274.00;;;;10523828;28;20189;-71
2021/04/24 08:04:47;;;;;;;10.27;6.23;;;;;15.00;102271.00;;;;10501945;28;20259;-72
2021/04/24 08:09:48;;;;;;;9.63;6.10;;;;;15.30;102269.00;;;;10519695;28;20192;-71
2021/04/24 08:14:49;;;;;;;7.17;5.77;;;;;15.40;102267.00;;;;10524919;28;20213;-72
2021/04/24 08:19:51;;;;;;;8.67;5.20;;;;;15.30;102258.00;;;;10523862;28;20919;-71
2021/04/24 08:24:52;;;;;;;8.80;6.17;;;;;15.70;102264.00;;;;10570116;28;20203;-72
2021/04/24 08:29:54;;;;;;;9.70;5.70;;;;;15.70;102270.00;;;;10527826;28;20246;-71
2021/04/24 08:34:55;;;;;;;10.30;5.27;;;;;15.90;102260.00;;;;10541202;28;20285;-68
2021/04/24 08:39:56;;;;;;;10.07;4.90;;;;;16.20;102254.00;;;;10539457;28;20193;-67
2021/04/24 08:44:58;;;;;;;8.60;5.30;;;;;17.00;102256.00;;;;10521264;28;20274;-71
2021/04/24 08:49:59;;;;;;;11.87;5.67;;;;;17.50;102246.00;;;;10520023;28;20279;-69
2021/04/24 08:55:02;;;;;;;9.20;5.37;;;;;17.40;102247.00;;;;10521790;28;20209;-71
2021/04/24 09:00:08;;;;;;;9.13;5.13;;;;;17.30;102247.00;;;;10521827;28;20197;-71
2021/04/24 09:05:14;;;;;;;6.50;4.67;;;;;17.50;102237.00;;;;10537128;28;20212;-69
2021/04/24 09:10:16;;;;;;;6.50;4.97;;;;;17.90;102242.00;;;;10503307;28;20666;-71
2021/04/24 09:15:26;;;;;;;9.93;5.27;;;;;18.20;102246.00;;;;10535921;28;20291;-71
2021/04/24 09:20:46;;;;;;;6.90;4.53;;;;;18.50;102239.00;;;;10533416;28;20193;-68
2021/04/24 09:25:50;;;;;;;9.60;4.00;;;;;18.60;102235.00;;;;10512001;28;20185;-71
2021/04/24 09:30:52;;;;;;;5.85;3.83;;;;;18.30;102226.00;;;;10519300;28;20196;-71
2021/04/24 09:35:55;;;;;;;7.07;4.38;;;;;17.60;102214.00;;;;10519244;28;20667;-71
2021/04/24 09:41:05;;;;;;;5.83;3.63;;;;;17.70;102199.00;;;;10501744;28;20200;-70
2021/04/24 09:46:08;;;;;;;9.83;4.70;;;;;17.70;102205.00;;;;10517972;28;20707;-71
2021/04/24 09:51:18;;;;;;;7.87;4.40;;;;;17.90;102203.00;;;;10515267;28;20250;-71
2021/04/24 09:56:19;;;;;;;9.03;4.43;;;;;18.40;102193.00;;;;10517890;28;20357;-71
2021/04/24 10:01:26;;;;;;;7.73;4.80;;;;;18.30;102208.00;;;;10506231;28;20288;-71
2021/04/24 10:06:34;;;;;;;7.90;4.77;;;;;18.20;102197.00;;;;10500563;28;20957;-71
2021/04/24 10:12:05;;;;;;;7.07;4.60;;;;;18.10;102185.00;;;;10515266;28;20212;-72
2021/04/24 10:17:13;;;;;;;7.77;4.90;;;;;18.80;102183.00;;;;10515297;28;20193;-71
2021/04/24 10:22:17;;;;;;;9.57;4.95;;;;;19.10;102174.00;;;;10498126;28;20272;-71
2021/04/24 10:27:21;;;;;;;8.07;4.60;;;;;19.40;102177.00;;;;10493824;28;20201;-72
2021/04/24 10:32:22;;;;;;;6.68;5.25;;;;;19.30;102167.00;;;;10521413;28;20283;-72
2021/04/24 10:37:23;;;;;;;6.68;4.70;;;;;19.60;102154.00;;;;10525380;28;20208;-72
2021/04/24 10:42:25;;;;;;;6.90;4.93;;;;;19.10;102159.00;;;;10520177;28;20280;-71
2021/04/24 10:47:43;;;;;;;10.33;5.80;;;;;19.40;102153.00;;;;10507174;28;20221;-71
2021/04/24 10:52:46;;;;;;;8.13;5.50;;;;;19.60;102161.00;;;;10514038;28;20306;-71
2021/04/24 10:57:48;;;;;;;8.65;5.95;;;;;19.30;102154.00;;;;10505131;28;21154;-71
2021/04/24 11:02:52;;;;;;;10.05;5.93;;;;;19.50;102146.00;;;;10538128;28;20592;-71
2021/04/24 11:08:23;;;;;;;9.85;5.63;;;;;19.50;102147.00;;;;10515515;28;20299;-72
2021/04/24 11:13:31;;;;;;;13.63;6.63;;;;;19.70;102140.00;;;;10510177;28;20213;-72
2021/04/24 11:18:34;;;;;;;8.35;5.57;;;;;19.90;102140.00;;;;10506048;28;20282;-72
2021/04/24 11:23:43;;;;;;;6.82;5.05;;;;;19.90;102134.00;;;;10536353;28;20283;-71
2021/04/24 11:29:01;;;;;;;13.07;6.18;;;;;19.90;102146.00;;;;10540011;28;20185;-72
2021/04/24 11:34:29;;;;;;;7.78;5.63;;;;;19.70;102134.00;;;;10541896;28;20193;-72
2021/04/24 11:39:30;;;;;;;8.13;5.72;;;;;20.10;102138.00;;;;10545225;28;20664;-71
2021/04/24 11:44:34;;;;;;;9.95;5.63;;;;;20.00;102125.00;;;;10538049;28;20220;-71
2021/04/24 11:49:50;;;;;;;9.10;5.57;;;;;20.20;102137.00;;;;10489042;28;20195;-72
2021/04/24 11:54:52;;;;;;;8.52;5.85;;;;;20.30;102130.00;;;;10537552;28;20196;-72
2021/04/24 12:00:02;;;;;;;8.35;6.20;;;;;19.90;102132.00;;;;10501317;28;20670;-72
2021/04/24 12:05:10;;;;;;;10.75;6.53;;;;;20.50;102113.00;;;;10505603;28;20205;-72
2021/04/24 12:10:12;;;;;;;12.45;6.28;;;;;21.00;102110.00;;;;10514073;28;20211;-72
2021/04/24 12:15:15;;;;;;;8.38;6.30;;;;;21.10;102105.00;;;;10488659;28;20695;-72
2021/04/24 12:20:25;;;;;;;7.78;6.28;;;;;21.20;102101.00;;;;10539432;28;20189;-72
2021/04/24 12:25:29;;;;;;;9.68;6.32;;;;;21.10;102103.00;;;;10508241;28;20189;-71
2021/04/24 12:30:38;;;;;;;10.00;6.10;;;;;21.60;102109.00;;;;10537639;28;20197;-70
2021/04/24 12:35:51;;;;;;;9.27;6.03;;;;;21.70;102112.00;;;;10523755;28;20251;-71
2021/04/24 12:40:57;;;;;;;8.07;5.82;;;;;21.70;102107.00;;;;10569705;27;20192;-71
2021/04/24 12:46:01;;;;;;;10.10;6.57;;;;;20.90;102107.00;;;;10525603;28;20254;-71
2021/04/24 12:51:04;;;;;;;7.45;6.35;;;;;21.30;102098.00;;;;10501060;28;20253;-71
2021/04/24 12:56:08;;;;;;;8.52;6.30;;;;;21.30;102092.00;;;;10515590;28;20201;-72
2021/04/24 13:01:14;;;;;;;8.93;6.03;;;;;21.10;102091.00;;;;10522253;28;20191;-71
2021/04/24 13:06:19;;;;;;;9.60;7.03;;;;;21.30;102089.00;;;;10505174;28;20216;-71
2021/04/24 13:11:20;;;;;;;11.63;6.07;;;;;21.20;102083.00;;;;10511285;28;20288;-73
2021/04/24 13:16:32;;;;;;;7.93;6.20;;;;;21.70;102091.00;;;;10518586;28;20305;-71
2021/04/24 13:21:37;;;;;;;7.82;5.85;;;;;21.80;102076.00;;;;10534147;28;20205;-72
2021/04/24 13:26:41;;;;;;;11.00;5.97;;;;;21.50;102080.00;;;;10520687;28;22028;-73
2021/04/24 13:31:45;;;;;;;6.65;5.43;;;;;22.80;102065.00;;;;10519926;28;20628;-71
2021/04/24 13:36:54;;;;;;;8.48;6.38;;;;;24.10;102057.00;;;;10508730;28;20300;-71
2021/04/24 13:42:10;;;;;;;9.02;5.38;;;;;25.00;102044.00;;;;10517275;28;20598;-71
2021/04/24 13:47:25;;;;;;;6.63;5.43;;;;;25.20;102037.00;;;;10510757;28;20222;-70
2021/04/24 13:52:27;;;;;;;6.80;6.10;;;;;26.10;102027.00;;;;10502194;28;20586;-70
2021/04/24 13:57:29;;;;;;;8.43;5.60;;;;;26.20;102023.00;;;;10541868;28;20212;-71
2021/04/24 14:02:30;;;;;;;9.82;5.18;;;;;27.60;102011.00;;;;10524578;28;20238;-70
2021/04/24 14:07:32;;;;;;;9.15;5.25;;;;;28.10;102000.00;;;;10483187;28;20224;-71
2021/04/24 14:12:33;;;;;;;7.15;5.40;;;;;28.20;101995.00;;;;10540108;28;20219;-71
2021/04/24 14:17:35;;;;;;;12.52;4.95;;;;;29.00;101989.00;;;;10483573;28;20289;-71
2021/04/24 14:22:41;;;;;;;7.35;5.40;;;;;28.40;101993.00;;;;10527551;28;20288;-71
2021/04/24 14:27:43;;;;;;;8.80;5.53;;;;;26.90;101979.00;;;;10492453;28;20276;-71
2021/04/24 14:32:44;;;;;;;6.93;5.38;;;;;27.50;101975.00;;;;10513045;28;20279;-70
2021/04/24 14:37:45;;;;;;;5.75;4.88;;;;;27.90;101965.00;;;;10503602;28;20205;-71
2021/04/24 14:42:47;;;;;;;9.75;5.30;;;;;28.80;101964.00;;;;10511281;28;20231;-71
2021/04/24 14:47:48;;;;;;;6.45;5.15;;;;;29.60;101959.00;;;;10552344;28;20227;-71
2021/04/24 14:52:51;;;;;;;7.38;5.07;;;;;30.90;101969.00;;;;10536453;28;20203;-71
2021/04/24 14:57:53;;;;;;;7.72;4.47;;;;;30.40;101965.00;;;;10535949;28;20209;-71
2021/04/24 15:02:54;;;;;;;8.90;5.15;;;;;30.20;101969.00;;;;10531928;28;20207;-70
2021/04/24 15:07:56;;;;;;;10.27;4.85;;;;;30.90;101964.00;;;;10502739;28;20213;-70
2021/04/24 15:12:58;;;;;;;7.80;4.90;;;;;29.50;101966.00;;;;10504930;28;20300;-71
2021/04/24 15:17:59;;;;;;;8.40;5.53;;;;;25.20;101981.00;;;;10491785;28;20201;-71
2021/04/24 15:23:04;;;;;;;9.63;5.03;;;;;22.70;101979.00;;;;10491854;28;20219;-70
2021/04/24 15:28:06;;;;;;;7.50;5.68;;;;;21.30;101987.00;;;;10525198;28;20595;-71
2021/04/24 15:33:08;;;;;;;8.98;4.88;;;;;24.30;101963.00;;;;10518987;28;20189;-70
2021/04/24 15:38:10;;;;;;;6.63;4.78;;;;;22.50;101949.00;;;;10487951;28;20209;-70
2021/04/24 15:43:12;;;;;;;9.15;4.60;;;;;24.40;101967.00;;;;10508178;28;20196;-72
2021/04/24 15:48:13;;;;;;;7.22;5.03;;;;;24.00;101972.00;;;;10469214;28;20201;-70
2021/04/24 15:53:18;;;;;;;8.52;4.88;;;;;21.40;101985.00;;;;10522651;28;20640;-70
2021/04/24 15:58:32;;;;;;;6.20;5.00;;;;;19.80;101976.00;;;;10527954;28;20583;-70
2021/04/24 16:03:36;;;;;;;7.88;4.65;;;;;20.70;101971.00;;;;10515192;28;20212;-70
2021/04/24 16:08:38;;;;;;;6.00;4.90;;;;;20.90;101974.00;;;;10503245;28;20567;-71
2021/04/24 16:13:40;;;;;;;9.98;5.18;;;;;19.20;101969.00;;;;10479456;28;20246;-71
2021/04/24 16:18:46;;;;;;;7.15;4.55;;;;;17.90;101963.00;;;;10500931;28;20209;-71
2021/04/24 16:23:47;;;;;;;6.07;3.90;;;;;17.30;101959.00;;;;10519542;28;20193;-71
2021/04/24 16:28:49;;;;;;;8.47;3.93;;;;;16.90;101953.00;;;;10477847;28;20785;-71
2021/04/24 16:33:53;;;;;;;7.10;3.83;;;;;16.80;101959.00;;;;10521400;28;20598;-71
2021/04/24 16:38:56;;;;;;;8.20;3.93;;;;;16.50;101965.00;;;;10505532;28;20660;-71
2021/04/24 16:43:57;;;;;;;9.53;3.90;;;;;16.30;101967.00;;;;10510005;28;20635;-70
2021/04/24 16:48:58;;;;;;;9.57;3.70;;;;;16.20;101951.00;;;;10468269;28;20197;-71
2021/04/24 16:53:59;;;;;;;7.20;3.63;;;;;16.00;101951.00;;;;10506527;28;20639;-71
2021/04/24 16:59:01;;;;;;;4.57;3.23;;;;;15.80;101938.00;;;;10501132;28;20864;-72
2021/04/24 17:04:02;;;;;;;4.57;3.47;;;;;15.70;101939.00;;;;10503527;28;20843;-71
2021/04/24 17:09:04;;;;;;;7.10;3.90;;;;;15.50;101936.00;;;;10470951;28;20263;-71
2021/04/24 17:14:11;;;;;;;9.20;3.97;;;;;15.50;101929.00;;;;10506556;28;20586;-71
2021/04/24 17:19:12;;;;;;;5.27;3.80;;;;;15.30;101931.00;;;;10521150;28;20728;-71
2021/04/24 17:24:13;;;;;;;9.13;3.70;;;;;15.30;101935.00;;;;10504815;28;20639;-72
2021/04/24 17:29:15;;;;;;;6.10;3.60;;;;;15.10;101935.00;;;;10522105;28;20200;-71
2021/04/24 17:34:16;;;;;;;5.27;3.50;;;;;14.90;101930.00;;;;10486117;28;20185;-72
2021/04/24 17:39:18;;;;;;;9.37;3.93;;;;;14.80;101937.00;;;;10538735;28;20208;-71
2021/04/24 17:44:19;;;;;;;8.37;3.57;;;;;14.70;101934.00;;;;10486985;28;20537;-71
2021/04/24 17:49:22;;;;;;;9.87;4.30;;;;;14.50;101938.00;;;;10489601;28;20297;-72
2021/04/24 17:54:24;;;;;;;7.77;3.90;;;;;14.40;101934.00;;;;10488083;28;20592;-72
2021/04/24 17:59:25;;;;;;;9.30;4.57;;;;;14.20;101932.00;;;;10537682;28;20217;-72
2021/04/24 18:04:26;;;;;;;7.10;3.63;;;;;14.10;101948.00;;;;10537584;28;20208;-72
2021/04/24 18:09:28;;;;;;;7.43;3.70;;;;;13.90;101946.00;;;;10503874;28;20204;-73
2021/04/24 18:14:29;;;;;;;8.80;3.93;;;;;13.70;101958.00;;;;10520865;28;20196;-72
2021/04/24 18:19:31;;;;;;;12.00;4.67;;;;;13.50;101958.00;;;;10553194;28;20250;-73
2021/04/24 18:24:34;;;;;;;7.97;4.73;;;;;13.30;101967.00;;;;10471870;28;20671;-74
2021/04/24 18:29:35;;;;;;;8.00;4.53;;;;;13.00;101973.00;;;;10536860;28;20280;-72
2021/04/24 18:34:36;;;;;;;8.80;5.23;;;;;12.70;101972.00;;;;10531392;28;20272;-70
2021/04/24 18:39:38;;;;;;;6.63;4.13;;;;;12.50;101970.00;;;;10502933;28;20261;-72
2021/04/24 18:44:40;;;;;;;11.77;4.70;;;;;12.30;101978.00;;;;10538589;28;20594;-73
2021/04/24 18:49:41;;;;;;;9.67;4.53;;;;;12.10;101980.00;;;;10528608;28;20246;-73
2021/04/24 18:54:42;;;;;;;12.00;4.90;;;;;11.90;101979.00;;;;10511194;28;20265;-71
2021/04/24 18:59:44;;;;;;;9.67;4.50;;;;;11.80;101983.00;;;;10528043;28;20209;-72
2021/04/24 19:04:46;;;;;;;7.80;4.67;;;;;11.60;101985.00;;;;10510558;28;20784;-72
2021/04/24 19:09:49;;;;;;;6.83;4.40;;;;;11.50;101995.00;;;;10477336;28;20277;-72
2021/04/24 19:14:52;;;;;;;12.80;4.50;;;;;11.40;102000.00;;;;10510379;28;20670;-72
2021/04/24 19:19:54;;;;;;;9.93;4.40;;;;;11.20;101998.00;;;;10510209;28;20216;-71
2021/04/24 19:24:55;;;;;;;9.87;4.60;;;;;11.10;101999.00;;;;10494027;28;20246;-72
2021/04/24 19:29:56;;;;;;;8.57;4.53;;;;;11.00;102005.00;;;;10526395;28;20189;-72
2021/04/24 19:34:57;;;;;;;10.33;4.87;;;;;10.80;102004.00;;;;10526563;28;20306;-71
2021/04/24 19:39:59;;;;;;;9.33;4.43;;;;;10.70;102008.00;;;;10526393;28;20244;-72
2021/04/24 19:45:01;;;;;;;13.17;4.80;;;;;10.60;102007.00;;;;10542116;28;20204;-72
2021/04/24 19:50:03;;;;;;;10.97;5.03;;;;;10.40;102012.00;;;;10526331;28;20246;-71
2021/04/24 19:55:06;;;;;;;15.23;6.67;;;;;10.30;102007.00;;;;10543384;28;20205;-72
2021/04/24 20:00:10;;;;;;;18.63;7.23;;;;;10.10;102012.00;;;;10541148;28;20240;-72
2021/04/24 20:05:13;;;;;;;15.10;7.33;;;;;10.00;102014.00;;;;10508071;28;20232;-71
2021/04/24 20:10:17;;;;;;;15.00;7.70;;;;;9.90;102020.00;;;;10501509;28;20247;-72
2021/04/24 20:15:20;;;;;;;13.67;7.20;;;;;9.80;102016.00;;;;10542271;28;20231;-72
2021/04/24 20:20:22;;;;;;;13.27;6.20;;;;;9.70;102020.00;;;;10508973;28;20234;-71
2021/04/24 20:25:23;;;;;;;11.93;5.53;;;;;9.60;102015.00;;;;10507953;28;20196;-71
2021/04/24 20:30:24;;;;;;;13.00;5.57;;;;;9.50;102031.00;;;;10524288;28;20189;-72
2021/04/24 20:35:35;;;;;;;9.73;4.67;;;;;9.40;102030.00;;;;10542586;28;20220;-71
2021/04/24 20:40:37;;;;;;;9.67;5.00;;;;;9.30;102039.00;;;;10506781;28;20268;-72
2021/04/24 20:45:39;;;;;;;12.87;4.73;;;;;9.40;102041.00;;;;10514177;28;20201;-72
2021/04/24 20:50:40;;;;;;;9.27;4.47;;;;;9.40;102041.00;;;;10506911;28;20196;-72
2021/04/24 20:55:46;;;;;;;8.50;3.93;;;;;9.40;102054.00;;;;10508286;28;20197;-72
2021/04/24 21:00:47;;;;;;;7.90;4.37;;;;;9.30;102064.00;;;;10473332;28;20189;-72
2021/04/24 21:05:49;;;;;;;7.87;3.47;;;;;9.30;102071.00;;;;10489688;28;20242;-72
2021/04/24 21:10:50;;;;;;;7.93;3.67;;;;;9.30;102062.00;;;;10506154;28;20253;-71
2021/04/24 21:15:52;;;;;;;9.73;4.13;;;;;9.10;102080.00;;;;10506397;28;20209;-71
2021/04/24 21:20:53;;;;;;;10.40;3.73;;;;;9.00;102087.00;;;;10489591;28;20698;-72
2021/04/24 21:25:54;;;;;;;9.37;3.77;;;;;8.90;102080.00;;;;10522963;28;20287;-71
2021/04/24 21:30:55;;;;;;;8.63;3.70;;;;;8.80;102095.00;;;;10522353;28;20193;-71
2021/04/24 21:35:57;;;;;;;11.50;4.13;;;;;8.70;102087.00;;;;10505223;28;20250;-71
2021/04/24 21:40:58;;;;;;;9.73;2.97;;;;;8.50;102092.00;;;;10505682;28;20193;-72
2021/04/24 21:46:00;;;;;;;7.30;3.50;;;;;8.40;102093.00;;;;10488187;28;20656;-71
2021/04/24 21:51:02;;;;;;;10.87;3.70;;;;;8.20;102087.00;;;;10522190;28;20238;-71
2021/04/24 21:56:06;;;;;;;11.83;3.80;;;;;8.10;102097.00;;;;10521035;28;20236;-71
2021/04/24 22:01:07;;;;;;;5.37;3.00;;;;;8.00;102097.00;;;;10538223;28;20193;-71
2021/04/24 22:06:17;;;;;;;9.63;2.70;;;;;7.90;102097.00;;;;10504897;28;20300;-72
2021/04/24 22:11:18;;;;;;;10.07;2.73;;;;;7.80;102103.00;;;;10537645;28;20218;-71
2021/04/24 22:16:19;;;;;;;4.50;3.43;;;;;7.80;102104.00;;;;10520905;28;20236;-72
2021/04/24 22:21:21;;;;;;;5.37;2.80;;;;;7.80;102100.00;;;;10525984;28;20234;-71
2021/04/24 22:26:22;;;;;;;6.83;2.40;;;;;7.80;102105.00;;;;10555058;28;20200;-71
2021/04/24 22:31:23;;;;;;;6.17;2.70;;;;;7.70;102098.00;;;;10515115;28;20536;-71
2021/04/24 22:36:26;;;;;;;5.10;2.27;;;;;7.60;102102.00;;;;10512541;28;20212;-72
2021/04/24 22:41:27;;;;;;;7.07;2.23;;;;;7.60;102114.00;;;;10529711;28;20188;-71
2021/04/24 22:46:28;;;;;;;7.03;2.60;;;;;7.50;102118.00;;;;10493005;28;20200;-71
2021/04/24 22:51:30;;;;;;;7.57;2.77;;;;;7.40;102112.00;;;;10495463;28;20196;-72
2021/04/24 22:56:31;;;;;;;4.13;2.30;;;;;7.30;102121.00;;;;10503789;28;20233;-71
2021/04/24 23:01:33;;;;;;;4.27;2.53;;;;;7.20;102119.00;;;;10494939;28;20197;-72
2021/04/24 23:06:35;;;;;;;10.37;2.77;;;;;7.10;102122.00;;;;10494498;28;20287;-71
2021/04/24 23:11:37;;;;;;;6.07;2.80;;;;;7.10;102138.00;;;;10527972;28;20201;-71
2021/04/24 23:16:38;;;;;;;4.27;3.00;;;;;7.00;102141.00;;;;10545655;28;20208;-72
2021/04/24 23:21:39;;;;;;;4.37;2.40;;;;;6.90;102140.00;;;;10561806;28;20196;-72
2021/04/24 23:26:41;;;;;;;3.40;2.60;;;;;6.90;102135.00;;;;10530831;28;20193;-71
2021/04/24 23:31:42;;;;;;;5.13;2.70;;;;;6.80;102138.00;;;;10525926;28;20192;-72
2021/04/24 23:36:44;;;;;;;5.93;2.70;;;;;6.80;102142.00;;;;10543373;28;20204;-72
2021/04/24 23:41:45;;;;;;;6.30;2.47;;;;;6.70;102140.00;;;;10527182;28;20269;-72
2021/04/24 23:46:46;;;;;;;4.03;2.50;;;;;6.60;102149.00;;;;10544236;28;20238;-72
2021/04/24 23:51:48;;;;;;;5.33;2.50;;;;;6.60;102152.00;;;;10526849;28;20651;-72
2021/04/24 23:56:49;;;;;;;8.60;2.60;;;;;6.50;102157.00;;;;10522895;28;20205;-72
